Terminal Aerodrome Forecast
Issued by NWS Boston, MA

Home | Current Version | Previous Version | Text Only | Print | Product List | Glossary On
Versions: 1 2 3 4 5 6 7 8 9 10 11 12 13 14 15 16 17 18 19 20 21 22 23 24 25 26 27 28 29 30 31
000
FTUS41 KBOX 012327
TAFORH
TAF
KORH 012327Z 0200/0224 22007KT 1SM -SN OVC015
      TEMPO 0200/0202 3/4SM -SN OVC008
     FM020500 25006KT 3SM -SN OVC020
     FM020700 26006KT P6SM OVC035
     FM021500 29015G23KT P6SM BKN050
     FM021900 29017G26KT P6SM SCT050=

USA.gov is the U.S. government's official web portal to all federal, state and local government web resources and services.